Sunday, July 22, 2018, 2:50 AM EDT
Back to Local

KYNG, Youngstown-warren Reg Airprt

Location: Vienna, OH, United States Lat: 41.25
Local Time: 2:50 AM EDT ( 6:50 GMT) Lon: -80.667
Time Zone: US/Eastern Elev: 1197 ft

Show me the last for .
Show Decoded

2018-07-22 01:51 METAR KYNG 220551Z 10009KT 10SM BKN110 OVC160 18/14 A2979 RMK AO2 SLP082
                 T01830144 10233 20183 58013 =
2018-07-22 00:51 METAR KYNG 220451Z 09009KT 10SM FEW025 BKN090 OVC160 19/15 A2981 RMK AO2 SLP086
                 T01890150 402610189 =
2018-07-21 23:51 METAR KYNG 220351Z 11009KT 10SM FEW023 BKN090 BKN230 19/15 A2983 RMK AO2 SLP093
                 T01940150 =
2018-07-21 22:51 METAR KYNG 220251Z 12013KT 10SM SCT130 BKN240 20/15 A2983 RMK AO2 SLP095
                 T02000150 50003 =
2018-07-21 21:51 METAR KYNG 220151Z 12012G17KT 10SM FEW034 SCT130 BKN240 21/16 A2984 RMK AO2
                 SLP096 T02110161 =
2018-07-21 20:51 METAR KYNG 220051Z 12012KT 10SM FEW027 SCT033 BKN170 BKN210 23/17 A2983 RMK AO2
                 SLP093 T02280172 =
2018-07-21 19:51 METAR KYNG 212351Z 11010KT 10SM FEW036 BKN170 BKN210 23/17 A2983 RMK AO2 SLP091
                 60000 T02330172 10261 20233 53000 =
2018-07-21 18:51 METAR KYNG 212251Z 12010G20KT 10SM FEW035 FEW110 BKN170 BKN210 24/17 A2983 RMK
                 AO2 SLP091 T02440172 =
2018-07-21 17:51 METAR KYNG 212151Z 12012KT 10SM FEW035 BKN110 OVC250 25/18 A2982 RMK AO2
                 RAB2057E15 SLP090 BINOVC P0000 T02500178 =
2018-07-21 16:51 METAR KYNG 212051Z 13011G18KT 10SM SCT035 BKN120 OVC250 25/17 A2982 RMK AO2
                 SLP091 T02500172 56005 =
2018-07-21 15:51 METAR KYNG 211951Z 15009G18KT 10SM SCT038 BKN120 OVC250 26/18 A2983 RMK AO2
                 SLP092 T02560178 =
2018-07-21 14:51 METAR KYNG 211851Z 13012G18KT 10SM SCT032 BKN120 BKN250 25/18 A2983 RMK AO2
                 SLP093 T02500183 =
2018-07-21 13:51 METAR KYNG 211751Z 17012G20KT 10SM BKN033 BKN085 BKN120 25/18 A2984 RMK AO2
                 SLP097 T02500178 10256 20206 58007 =
2018-07-21 12:51 METAR KYNG 211651Z 15010G18KT 10SM BKN032 BKN046 OVC110 24/17 A2986 RMK AO2
                 SLP102 T02390172 =
2018-07-21 11:51 METAR KYNG 211551Z 15013G21KT 10SM SCT032 BKN110 OVC180 25/18 A2986 RMK AO2
                 SLP102 BINOVC T02500178 =
2018-07-21 10:51 METAR KYNG 211451Z 13010G19KT 10SM SCT035 BKN100 OVC170 23/17 A2986 RMK AO2
                 SLP104 T02280172 50004 =
2018-07-21 09:51 METAR KYNG 211351Z 16010G17KT 10SM FEW026 SCT050 BKN120 BKN170 23/17 A2986 RMK
                 AO2 SLP105 T02280167 =
2018-07-21 08:51 METAR KYNG 211251Z 16010KT 10SM FEW022 SCT034 BKN120 21/17 A2987 RMK AO2 SLP105
                 T02110167 =
2018-07-21 07:51 METAR KYNG 211151Z 15009G15KT 10SM SCT038 SCT080 BKN130 21/17 A2985 RMK AO2
                 SLP100 70020 T02060167 10217 20200 56000 =
2018-07-21 06:51 METAR KYNG 211051Z 14009KT 10SM FEW030 SCT080 BKN120 20/17 A2985 RMK AO2 SLP101
                 T02000167 =
2018-07-21 05:51 METAR KYNG 210951Z 14006KT 10SM FEW075 BKN110 20/16 A2985 RMK AO2 SLP100
                 T02000161 =
2018-07-21 04:51 METAR KYNG 210851Z 13007KT 10SM FEW030 SCT075 BKN110 20/17 A2985 RMK AO2 SLP101
                 T02000167 58008 =
2018-07-21 03:51 METAR KYNG 210751Z 16009KT 10SM SCT028 BKN070 BKN110 21/17 A2987 RMK AO2 SLP105
                 T02110167 =
2018-07-21 02:51 METAR KYNG 210651Z 17010KT 10SM OVC027 22/17 A2988 RMK AO2 SLP108 T02170172 =

Support USWX by starting your Amazon purchase here.